createdAt,value
2022-09-30T00:00:23.461Z,10.01
2022-09-30T00:05:25.054Z,10.11
2022-09-30T00:10:26.722Z,10.22
2022-09-30T00:15:28.228Z,10.24
2022-09-30T00:20:29.749Z,10.23
2022-09-30T00:25:31.230Z,10.34
2022-09-30T00:30:32.918Z,9.88
2022-09-30T00:35:34.462Z,10.03
2022-09-30T00:40:38.849Z,10.20
2022-09-30T00:45:48.675Z,10.18
2022-09-30T00:50:51.751Z,10.05
2022-09-30T00:56:16.474Z,9.56
2022-09-30T01:01:19.257Z,9.65
2022-09-30T01:06:23.602Z,9.99
2022-09-30T01:11:27.417Z,9.71
2022-09-30T01:16:45.784Z,9.78
2022-09-30T01:21:53.131Z,9.79
2022-09-30T01:27:05.027Z,9.85
2022-09-30T01:32:40.860Z,9.74
2022-09-30T01:37:51.323Z,9.44
2022-09-30T01:43:10.615Z,9.88
2022-09-30T01:48:39.159Z,9.89
2022-09-30T01:53:46.791Z,9.94
2022-09-30T01:58:57.700Z,9.65
2022-09-30T02:04:05.397Z,9.78
2022-09-30T02:09:13.812Z,9.25
2022-09-30T02:14:23.563Z,9.66
2022-09-30T02:19:29.218Z,9.77
2022-09-30T02:24:35.518Z,9.80
2022-09-30T02:29:42.107Z,9.60
2022-09-30T02:34:50.609Z,9.38
2022-09-30T02:40:02.004Z,8.52
2022-09-30T02:45:08.204Z,9.39
2022-09-30T02:50:35.114Z,9.18
2022-09-30T02:55:51.149Z,9.71
2022-09-30T03:00:54.341Z,8.96
2022-09-30T03:05:56.120Z,9.51
2022-09-30T03:10:57.653Z,9.50
2022-09-30T03:16:20.887Z,9.43
2022-09-30T03:21:29.792Z,9.09
2022-09-30T03:26:42.198Z,8.85
2022-09-30T03:32:03.486Z,9.23
2022-09-30T03:37:30.781Z,9.56
2022-09-30T03:42:39.441Z,8.80
2022-09-30T03:47:46.829Z,9.02
2022-09-30T03:52:49.921Z,8.64
2022-09-30T03:57:51.629Z,8.84
2022-09-30T04:02:57.666Z,9.33
2022-09-30T04:07:59.442Z,9.10
2022-09-30T04:13:00.957Z,9.46
2022-09-30T04:18:04.081Z,9.17
2022-09-30T04:23:05.570Z,8.54
2022-09-30T04:28:07.857Z,9.11
2022-09-30T04:33:09.435Z,8.44
2022-09-30T04:38:11.022Z,8.85
2022-09-30T04:43:12.596Z,8.76
2022-09-30T04:48:14.839Z,8.30
2022-09-30T04:53:17.894Z,8.71
2022-09-30T04:58:19.365Z,8.59
2022-09-30T05:03:20.874Z,8.62
2022-09-30T05:08:22.361Z,8.20
2022-09-30T05:13:31.702Z,8.63
2022-09-30T05:18:33.643Z,8.60
2022-09-30T05:23:35.109Z,8.45
2022-09-30T05:28:36.596Z,8.71
2022-09-30T05:33:38.063Z,8.91
2022-09-30T05:38:39.456Z,7.87
2022-09-30T05:43:42.473Z,8.40
2022-09-30T05:48:44.119Z,8.63
2022-09-30T05:53:45.683Z,8.07
2022-09-30T05:58:47.184Z,8.49
2022-09-30T06:03:48.739Z,8.36
2022-09-30T06:08:50.365Z,8.69
2022-09-30T06:13:52.047Z,8.59
2022-09-30T06:18:53.443Z,8.02
2022-09-30T06:23:54.903Z,8.36
2022-09-30T06:28:56.309Z,8.33
2022-09-30T06:33:57.799Z,7.86
2022-09-30T06:39:04.253Z,8.53
2022-09-30T06:44:05.819Z,8.60
2022-09-30T06:49:13.450Z,8.33
2022-09-30T06:54:15.385Z,8.58
2022-09-30T06:59:16.761Z,8.80
2022-09-30T07:04:18.439Z,9.00
2022-09-30T07:09:20.233Z,9.02
2022-09-30T07:14:21.819Z,9.17
2022-09-30T07:19:23.379Z,9.30
2022-09-30T07:24:24.882Z,9.52
2022-09-30T07:29:26.408Z,9.43
2022-09-30T07:34:27.862Z,9.64
2022-09-30T07:39:29.579Z,9.48
2022-09-30T07:44:31.363Z,9.41
2022-09-30T07:49:32.918Z,9.23
2022-09-30T07:54:38.774Z,8.73
2022-09-30T07:59:42.881Z,8.59
2022-09-30T08:04:45.210Z,9.35
2022-09-30T08:09:46.862Z,9.49
2022-09-30T08:14:48.357Z,9.15
2022-09-30T08:19:49.926Z,8.94
2022-09-30T08:24:51.378Z,8.62
2022-09-30T08:29:55.851Z,9.44
2022-09-30T08:34:58.160Z,9.32
2022-09-30T08:39:59.657Z,9.39
2022-09-30T08:45:18.762Z,9.76
2022-09-30T08:51:03.345Z,10.10
2022-09-30T08:56:06.976Z,9.89
2022-09-30T09:01:46.630Z,9.71
2022-09-30T09:06:57.881Z,10.16
2022-09-30T09:12:25.722Z,10.45
2022-09-30T09:18:04.589Z,10.59
2022-09-30T09:23:13.916Z,10.65
2022-09-30T09:28:35.571Z,11.07
2022-09-30T09:33:39.212Z,11.18
2022-09-30T09:38:54.177Z,11.19
2022-09-30T09:44:14.075Z,11.60
2022-09-30T09:49:15.475Z,11.58
2022-09-30T09:54:20.910Z,11.67
2022-09-30T09:59:22.786Z,11.77
2022-09-30T10:04:26.799Z,12.16
2022-09-30T10:09:35.585Z,12.29
2022-09-30T10:14:53.886Z,12.50
2022-09-30T10:20:01.079Z,12.59
2022-09-30T10:25:14.477Z,12.68
2022-09-30T10:30:44.829Z,12.94
2022-09-30T10:35:59.924Z,12.93
2022-09-30T10:41:02.883Z,12.97
2022-09-30T10:51:34.785Z,13.20
2022-09-30T10:56:45.587Z,13.11
2022-09-30T11:01:53.743Z,13.22
2022-09-30T11:07:10.446Z,13.22
2022-09-30T11:12:21.834Z,13.33
2022-09-30T11:17:27.116Z,13.27
2022-09-30T11:22:37.222Z,13.49
2022-09-30T11:28:11.345Z,13.36
2022-09-30T11:33:19.266Z,13.47
2022-09-30T11:38:20.637Z,13.67
2022-09-30T11:43:32.908Z,13.69
2022-09-30T11:48:53.026Z,13.59
2022-09-30T11:53:57.503Z,13.67
2022-09-30T11:59:02.912Z,13.68
2022-09-30T12:04:17.139Z,13.66
2022-09-30T12:09:25.314Z,13.64
2022-09-30T12:14:34.596Z,13.70
2022-09-30T12:19:48.109Z,13.46
2022-09-30T12:24:49.733Z,13.60
2022-09-30T12:29:59.798Z,13.41
2022-09-30T12:35:26.245Z,13.73
2022-09-30T12:40:52.961Z,13.47
2022-09-30T12:46:05.072Z,13.38
2022-09-30T12:51:07.041Z,13.49
2022-09-30T12:56:10.298Z,13.60
2022-09-30T13:01:27.817Z,13.58
2022-09-30T13:06:47.628Z,13.73
2022-09-30T13:11:55.315Z,13.77
2022-09-30T13:17:09.093Z,13.57
2022-09-30T13:22:19.789Z,13.64
2022-09-30T13:27:32.678Z,14.18
2022-09-30T13:32:36.509Z,14.27
2022-09-30T13:37:40.002Z,14.07
2022-09-30T13:42:49.968Z,13.91
2022-09-30T13:48:10.847Z,14.02
2022-09-30T13:53:19.527Z,14.09
2022-09-30T13:58:45.809Z,13.81
2022-09-30T14:04:22.967Z,13.93
2022-09-30T14:10:09.078Z,13.79
2022-09-30T14:15:32.701Z,13.55
2022-09-30T14:21:01.427Z,13.51
2022-09-30T14:26:15.357Z,13.46
2022-09-30T14:31:17.076Z,13.47
2022-09-30T14:36:22.211Z,13.47
2022-09-30T14:41:26.185Z,13.58
2022-09-30T14:46:38.736Z,13.51
2022-09-30T14:51:46.385Z,13.58
2022-09-30T14:56:49.527Z,13.70
2022-09-30T15:01:52.935Z,13.50
2022-09-30T15:06:55.168Z,13.46
2022-09-30T15:11:56.921Z,13.45
2022-09-30T15:17:05.145Z,13.56
2022-09-30T15:22:11.379Z,13.68
2022-09-30T15:27:23.479Z,13.55
2022-09-30T15:32:27.588Z,13.45
2022-09-30T15:37:29.270Z,13.41
2022-09-30T15:42:50.972Z,13.36
2022-09-30T15:47:58.258Z,13.58
2022-09-30T15:53:04.559Z,13.52
2022-09-30T15:58:26.099Z,13.55
2022-09-30T16:03:30.393Z,13.56
2022-09-30T16:08:38.477Z,13.52
2022-09-30T16:13:43.785Z,13.55
2022-09-30T16:18:45.494Z,13.45
2022-09-30T16:23:48.169Z,13.40
2022-09-30T16:28:50.654Z,13.39
2022-09-30T16:33:52.223Z,13.36
2022-09-30T16:38:53.681Z,13.42
2022-09-30T16:43:55.148Z,13.46
2022-09-30T16:48:56.679Z,13.64
2022-09-30T16:53:58.067Z,13.69
2022-09-30T16:58:59.644Z,13.71
2022-09-30T17:04:01.599Z,13.64
2022-09-30T17:09:04.555Z,13.60
2022-09-30T17:14:06.145Z,13.53
2022-09-30T17:19:07.655Z,13.52
2022-09-30T17:24:09.349Z,13.47
2022-09-30T17:29:30.847Z,13.43
2022-09-30T17:34:32.453Z,13.28
2022-09-30T17:39:34.079Z,13.30
2022-09-30T17:44:35.497Z,13.27
2022-09-30T17:49:37.116Z,13.25
2022-09-30T17:54:38.537Z,13.19
2022-09-30T17:59:40.065Z,12.98
2022-09-30T18:04:41.566Z,13.09
2022-09-30T18:09:43.042Z,13.07
2022-09-30T18:14:44.819Z,12.95
2022-09-30T18:19:46.320Z,12.85
2022-09-30T18:24:47.800Z,12.83
2022-09-30T18:29:49.454Z,12.65
2022-09-30T18:34:50.902Z,12.61
2022-09-30T18:39:52.538Z,12.44
2022-09-30T18:44:54.102Z,12.51
2022-09-30T18:49:55.575Z,12.54
2022-09-30T18:54:57.097Z,12.35
2022-09-30T18:59:58.992Z,12.02
2022-09-30T19:05:00.527Z,12.15
2022-09-30T19:10:02.531Z,12.16
2022-09-30T19:15:05.736Z,11.96
2022-09-30T19:20:07.642Z,12.15
2022-09-30T19:25:11.274Z,12.15
2022-09-30T19:30:14.454Z,11.84
2022-09-30T19:35:16.069Z,12.12
2022-09-30T19:40:21.911Z,12.05
2022-09-30T19:45:25.802Z,11.93
2022-09-30T19:50:27.654Z,11.70
2022-09-30T19:55:29.805Z,11.81
2022-09-30T20:00:32.097Z,11.47
2022-09-30T20:05:33.543Z,11.77
2022-09-30T20:10:34.994Z,11.74
2022-09-30T20:15:40.436Z,11.72
2022-09-30T20:20:44.334Z,11.73
2022-09-30T20:25:48.906Z,11.40
2022-09-30T20:30:50.427Z,11.54
2022-09-30T20:35:51.856Z,11.25
2022-09-30T20:40:57.959Z,11.44
2022-09-30T20:46:01.982Z,11.40
2022-09-30T20:51:08.634Z,11.37
2022-09-30T20:56:13.110Z,11.02
2022-09-30T21:01:17.493Z,11.27
2022-09-30T21:06:23.936Z,11.13
2022-09-30T21:11:25.431Z,11.19
2022-09-30T21:16:27.009Z,11.14
2022-09-30T21:21:28.516Z,10.99
2022-09-30T21:26:29.930Z,11.09
2022-09-30T21:31:31.752Z,10.98
2022-09-30T21:36:33.673Z,10.80
2022-09-30T21:41:35.585Z,11.05
2022-09-30T21:46:37.334Z,11.01
2022-09-30T21:51:38.786Z,10.97
2022-09-30T21:56:41.616Z,10.77
2022-09-30T22:01:43.296Z,10.65
2022-09-30T22:06:44.998Z,10.84
2022-09-30T22:11:46.892Z,10.94
2022-09-30T22:16:48.385Z,10.88
2022-09-30T22:21:49.845Z,10.94
2022-09-30T22:26:51.278Z,10.60
2022-09-30T22:31:52.819Z,10.40
2022-09-30T22:36:54.320Z,10.74
2022-09-30T22:41:57.439Z,10.85
2022-09-30T22:46:59.088Z,10.77
2022-09-30T22:52:01.211Z,10.71
2022-09-30T22:57:03.815Z,10.78
2022-09-30T23:02:05.330Z,10.51
2022-09-30T23:07:06.838Z,10.47
2022-09-30T23:12:08.527Z,10.66
2022-09-30T23:17:09.967Z,10.42
2022-09-30T23:22:11.470Z,10.67
2022-09-30T23:27:12.952Z,10.78
2022-09-30T23:32:14.414Z,10.79
2022-09-30T23:37:16.114Z,10.78
2022-09-30T23:42:17.668Z,11.02
2022-09-30T23:47:19.168Z,11.04
2022-09-30T23:52:20.695Z,10.74
2022-09-30T23:57:22.163Z,10.74
